Time;durP1;ratioP1;P1;durP2;ratioP2;P2;SDS_P1;SDS_P2;PMS_P1;PMS_P2;Temp;Humidity;BMP_temperature;BMP_pressure;BME280_temperature;BME280_humidity;BME280_pressure;Samples;Min_cycle;Max_cycle;Signal;HPM_P1;HPM_P2
2022/01/08 00:00:14;;;;;;;3.72;3.03;;;;;;;;;;5041711;28;20680;-28
2022/01/08 00:02:39;;;;;;;3.55;2.95;;;;;;;;;;5043114;28;20037;-31
2022/01/08 00:05:05;;;;;;;4.03;3.60;;;;;;;;;;5046268;28;20593;-34
2022/01/08 00:07:31;;;;;;;3.17;2.88;;;;;;;;;;5046471;28;20102;-31
2022/01/08 00:09:56;;;;;;;3.90;3.25;;;;;;;;;;5045900;28;20549;-33
2022/01/08 00:12:23;;;;;;;3.30;3.00;;;;;;;;;;5045698;28;20024;-32
2022/01/08 00:14:48;;;;;;;3.83;3.10;;;;;;;;;;5045716;28;20037;-31
2022/01/08 00:17:14;;;;;;;6.38;3.10;;;;;;;;;;5045201;28;20048;-34
2022/01/08 00:19:39;;;;;;;3.30;3.00;;;;;;;;;;5046068;28;20116;-34
2022/01/08 00:22:05;;;;;;;3.30;3.00;;;;;;;;;;5045577;28;20029;-30
2022/01/08 00:24:30;;;;;;;4.75;2.92;;;;;;;;;;5045579;28;20442;-33
2022/01/08 00:26:56;;;;;;;3.00;2.70;;;;;;;;;;5045253;28;20040;-31
2022/01/08 00:29:21;;;;;;;3.72;2.97;;;;;;;;;;5045558;28;20098;-28
2022/01/08 00:31:47;;;;;;;5.15;2.95;;;;;;;;;;5045520;28;20044;-32
2022/01/08 00:34:12;;;;;;;4.60;3.08;;;;;;;;;;5045514;28;20071;-36
2022/01/08 00:36:38;;;;;;;3.55;3.25;;;;;;;;;;5045419;28;20395;-37
2022/01/08 00:39:03;;;;;;;4.35;3.08;;;;;;;;;;5045002;28;20535;-33
2022/01/08 00:41:29;;;;;;;7.57;2.90;;;;;;;;;;5044997;28;20032;-32
2022/01/08 00:43:55;;;;;;;3.22;2.92;;;;;;;;;;5045189;28;20135;-31
2022/01/08 00:46:20;;;;;;;3.63;3.17;;;;;;;;;;5044770;28;20017;-32
2022/01/08 00:48:46;;;;;;;2.67;2.47;;;;;;;;;;5045302;28;20392;-32
2022/01/08 00:51:11;;;;;;;5.95;3.13;;;;;;;;;;5045193;28;20048;-31
2022/01/08 00:53:37;;;;;;;4.30;2.65;;;;;;;;;;5045581;28;20032;-34
2022/01/08 00:56:03;;;;;;;3.33;2.50;;;;;;;;;;5045223;28;20025;-31
2022/01/08 00:58:29;;;;;;;4.78;2.92;;;;;;;;;;5044936;28;20032;-30
2022/01/08 01:00:54;;;;;;;2.72;2.40;;;;;;;;;;5045088;28;20083;-30
2022/01/08 01:03:20;;;;;;;3.47;2.67;;;;;;;;;;5044508;28;20454;-32
2022/01/08 01:05:45;;;;;;;2.65;2.45;;;;;;;;;;5045373;28;20044;-30
2022/01/08 01:08:11;;;;;;;5.53;2.75;;;;;;;;;;5044258;28;20443;-35
2022/01/08 01:10:36;;;;;;;3.53;2.30;;;;;;;;;;5044837;28;20036;-32
2022/01/08 01:13:02;;;;;;;3.55;2.30;;;;;;;;;;5044902;28;20482;-30
2022/01/08 01:15:28;;;;;;;3.00;2.67;;;;;;;;;;5042316;28;20032;-31
2022/01/08 01:17:53;;;;;;;4.57;2.70;;;;;;;;;;5044829;28;20209;-31
2022/01/08 01:20:20;;;;;;;4.85;2.67;;;;;;;;;;5044172;28;20029;-33
2022/01/08 01:23:06;;;;;;;2.50;2.30;;;;;;;;;;5044383;28;20503;-35
2022/01/08 01:25:39;;;;;;;2.80;2.40;;;;;;;;;;5044376;28;20598;-32
2022/01/08 01:28:20;;;;;;;;;;;;;;;;;;5036357;28;20064;-30
2022/01/08 01:41:38;;;;;;;3.67;2.70;;;;;;;;;;5024708;28;20060;-32
2022/01/08 01:49:16;;;;;;;3.85;2.30;;;;;;;;;;5024043;28;20103;-32
2022/01/08 01:51:42;;;;;;;3.58;2.15;;;;;;;;;;5023864;28;20025;-33
2022/01/08 01:54:08;;;;;;;7.78;3.00;;;;;;;;;;5023813;28;20065;-37
2022/01/08 01:56:33;;;;;;;5.47;2.42;;;;;;;;;;5023924;28;20025;-30
2022/01/08 01:58:59;;;;;;;4.00;2.20;;;;;;;;;;5006213;28;20029;-31
2022/01/08 02:01:24;;;;;;;3.67;2.55;;;;;;;;;;5024031;28;20045;-33
2022/01/08 02:03:50;;;;;;;3.35;2.30;;;;;;;;;;5024348;28;20505;-33
2022/01/08 02:06:15;;;;;;;4.47;2.30;;;;;;;;;;5023602;28;20025;-33
2022/01/08 02:08:42;;;;;;;5.72;2.55;;;;;;;;;;5024035;28;20884;-30
2022/01/08 02:11:07;;;;;;;5.60;2.40;;;;;;;;;;5022422;28;20105;-35
2022/01/08 02:13:33;;;;;;;4.35;2.25;;;;;;;;;;5023714;28;20511;-34
2022/01/08 02:16:01;;;;;;;4.60;2.22;;;;;;;;;;5023793;28;20038;-32
2022/01/08 02:18:27;;;;;;;3.13;2.58;;;;;;;;;;5023476;28;20499;-32
2022/01/08 02:20:56;;;;;;;3.97;2.40;;;;;;;;;;5023671;28;20029;-30
2022/01/08 02:23:22;;;;;;;2.92;2.22;;;;;;;;;;5023664;28;20667;-30
2022/01/08 02:25:48;;;;;;;3.17;2.00;;;;;;;;;;5023721;28;20033;-31
2022/01/08 02:28:14;;;;;;;2.58;2.17;;;;;;;;;;5023523;28;20037;-32
2022/01/08 02:30:39;;;;;;;2.60;2.10;;;;;;;;;;5023139;28;20032;-36
2022/01/08 02:33:05;;;;;;;2.28;2.08;;;;;;;;;;5022785;28;20029;-30
2022/01/08 02:35:30;;;;;;;4.55;2.13;;;;;;;;;;5023251;28;20079;-31
2022/01/08 02:37:56;;;;;;;2.60;2.03;;;;;;;;;;5023004;28;20099;-33
2022/01/08 02:40:23;;;;;;;2.25;2.00;;;;;;;;;;5021203;28;20564;-38
2022/01/08 02:43:03;;;;;;;2.47;1.80;;;;;;;;;;5023589;28;20128;-34
2022/01/08 02:45:29;;;;;;;2.45;1.67;;;;;;;;;;5022638;28;20466;-33
2022/01/08 02:47:55;;;;;;;2.15;1.95;;;;;;;;;;5023153;28;20069;-33
2022/01/08 02:50:20;;;;;;;2.47;1.90;;;;;;;;;;5022818;28;20049;-35
2022/01/08 02:52:46;;;;;;;2.60;2.28;;;;;;;;;;5022912;28;20055;-33
2022/01/08 02:55:19;;;;;;;2.28;2.08;;;;;;;;;;5022854;28;20083;-31
2022/01/08 02:57:45;;;;;;;;;;;;;;;;;;5023625;28;20044;-34
2022/01/08 03:00:12;;;;;;;2.28;2.00;;;;;;;;;;5022494;28;19917;-34
2022/01/08 03:02:45;;;;;;;4.63;1.95;;;;;;;;;;5022770;28;20490;-34
2022/01/08 03:05:11;;;;;;;6.15;2.20;;;;;;;;;;5022640;28;20026;-34
2022/01/08 03:07:38;;;;;;;2.92;1.90;;;;;;;;;;5022719;28;20429;-32
2022/01/08 03:10:05;;;;;;;5.20;2.08;;;;;;;;;;5022695;28;20140;-36
2022/01/08 03:12:31;;;;;;;2.88;2.22;;;;;;;;;;5021204;28;20040;-30
2022/01/08 03:14:56;;;;;;;2.95;1.85;;;;;;;;;;5022422;28;20041;-33
2022/01/08 03:17:22;;;;;;;2.63;2.35;;;;;;;;;;5022841;28;20621;-32
2022/01/08 03:19:50;;;;;;;5.65;2.30;;;;;;;;;;5022635;28;20044;-36
2022/01/08 03:22:16;;;;;;;2.40;2.10;;;;;;;;;;5022838;28;20030;-33
2022/01/08 03:24:42;;;;;;;2.30;1.90;;;;;;;;;;5023112;28;20123;-31
2022/01/08 03:27:08;;;;;;;2.28;1.90;;;;;;;;;;5022557;28;20029;-34
2022/01/08 03:29:33;;;;;;;3.40;2.00;;;;;;;;;;5022676;28;20037;-31
2022/01/08 03:31:59;;;;;;;1.92;1.67;;;;;;;;;;5022785;28;20048;-34
2022/01/08 03:34:24;;;;;;;2.53;1.90;;;;;;;;;;5022461;28;20029;-29
2022/01/08 03:36:50;;;;;;;3.13;1.95;;;;;;;;;;5023001;28;20030;-35
2022/01/08 03:39:15;;;;;;;3.53;2.00;;;;;;;;;;5025882;28;20741;-38
2022/01/08 03:41:42;;;;;;;2.85;1.90;;;;;;;;;;5026671;28;20030;-30
2022/01/08 03:44:08;;;;;;;2.28;1.73;;;;;;;;;;5026756;28;20327;-30
2022/01/08 03:46:35;;;;;;;1.90;1.67;;;;;;;;;;5025953;28;20537;-33
2022/01/08 03:51:27;;;;;;;2.35;1.98;;;;;;;;;;5026058;28;20037;-33
2022/01/08 03:53:52;;;;;;;2.35;2.00;;;;;;;;;;5026627;28;20091;-31
2022/01/08 03:56:18;;;;;;;2.20;1.88;;;;;;;;;;5026091;28;20030;-31
2022/01/08 03:58:43;;;;;;;1.77;1.63;;;;;;;;;;5026112;28;20064;-33
2022/01/08 04:01:09;;;;;;;1.80;1.58;;;;;;;;;;5026065;28;20060;-36
2022/01/08 04:03:35;;;;;;;2.47;1.85;;;;;;;;;;5026718;28;20036;-29
2022/01/08 04:06:00;;;;;;;2.13;1.85;;;;;;;;;;5026354;28;20112;-35
2022/01/08 04:08:26;;;;;;;2.08;1.80;;;;;;;;;;5025795;28;20073;-37
2022/01/08 04:10:51;;;;;;;2.47;1.85;;;;;;;;;;5025669;28;20055;-32
2022/01/08 04:13:22;;;;;;;3.28;2.00;;;;;;;;;;5025315;28;20497;-31
2022/01/08 04:15:50;;;;;;;2.40;2.05;;;;;;;;;;5025795;28;20032;-32
2022/01/08 04:18:16;;;;;;;2.20;1.80;;;;;;;;;;5025951;28;20867;-32
2022/01/08 04:21:41;;;;;;;3.83;1.88;;;;;;;;;;5025784;28;20256;-31
2022/01/08 04:23:34;;;;;;;2.08;1.83;;;;;;;;;;5023718;28;20617;-30
2022/01/08 04:25:59;;;;;;;3.35;1.55;;;;;;;;;;5025572;28;20029;-30
2022/01/08 04:28:25;;;;;;;1.73;1.55;;;;;;;;;;5025837;28;20099;-32
2022/01/08 04:30:50;;;;;;;5.80;1.60;;;;;;;;;;5025770;28;20021;-33
2022/01/08 04:33:16;;;;;;;4.55;1.70;;;;;;;;;;5025734;28;20437;-37
2022/01/08 04:35:41;;;;;;;4.25;1.73;;;;;;;;;;5025567;28;20025;-29
2022/01/08 04:38:07;;;;;;;5.93;1.40;;;;;;;;;;5025507;28;20069;-36
2022/01/08 04:40:32;;;;;;;2.50;1.70;;;;;;;;;;5025837;28;20049;-33
2022/01/08 04:42:59;;;;;;;2.95;1.80;;;;;;;;;;5024532;28;20029;-32
2022/01/08 04:45:29;;;;;;;4.03;1.55;;;;;;;;;;5043303;28;20040;-32
2022/01/08 04:47:58;;;;;;;7.60;1.60;;;;;;;;;;5044967;28;20067;-33
2022/01/08 04:50:24;;;;;;;2.03;1.65;;;;;;;;;;5043635;28;20112;-32
2022/01/08 04:52:50;;;;;;;5.78;1.77;;;;;;;;;;5044643;28;20029;-30
2022/01/08 04:55:15;;;;;;;4.43;1.52;;;;;;;;;;5045494;28;20036;-33
2022/01/08 04:57:41;;;;;;;1.98;1.60;;;;;;;;;;5045063;28;20099;-32
2022/01/08 05:00:07;;;;;;;3.88;1.52;;;;;;;;;;5045105;28;20036;-34
2022/01/08 05:02:32;;;;;;;4.55;1.30;;;;;;;;;;5028724;28;20496;-29
2022/01/08 05:04:58;;;;;;;2.25;1.60;;;;;;;;;;5025226;28;20037;-33
2022/01/08 05:07:24;;;;;;;2.78;1.23;;;;;;;;;;5024900;28;20492;-37
2022/01/08 05:09:49;;;;;;;1.98;1.67;;;;;;;;;;5024900;28;20052;-33
2022/01/08 05:12:15;;;;;;;1.77;1.35;;;;;;;;;;5024641;28;20026;-36
2022/01/08 05:14:43;;;;;;;2.70;1.60;;;;;;;;;;5024977;28;20605;-33
2022/01/08 05:17:08;;;;;;;4.82;1.50;;;;;;;;;;5024701;28;20056;-36
2022/01/08 05:19:43;;;;;;;2.25;1.52;;;;;;;;;;5024634;28;20029;-34
2022/01/08 05:22:17;;;;;;;1.58;1.48;;;;;;;;;;5024572;28;20561;-30
2022/01/08 05:24:42;;;;;;;1.58;1.40;;;;;;;;;;5024828;28;20047;-29
2022/01/08 05:27:12;;;;;;;1.77;1.38;;;;;;;;;;5024735;28;20030;-36
2022/01/08 05:29:38;;;;;;;2.15;1.40;;;;;;;;;;5024448;28;20033;-34
2022/01/08 05:32:04;;;;;;;2.42;1.60;;;;;;;;;;5024574;28;20060;-32
2022/01/08 05:34:29;;;;;;;1.73;1.33;;;;;;;;;;5022867;28;20596;-32
2022/01/08 05:36:55;;;;;;;1.77;1.40;;;;;;;;;;5023285;28;20036;-34
2022/01/08 05:39:20;;;;;;;4.53;1.23;;;;;;;;;;5024043;28;20116;-29
2022/01/08 05:41:46;;;;;;;2.17;1.60;;;;;;;;;;5024495;28;20079;-33
2022/01/08 05:44:11;;;;;;;2.72;1.27;;;;;;;;;;5024080;28;20029;-34
2022/01/08 05:46:39;;;;;;;1.52;1.40;;;;;;;;;;5024175;28;20517;-32
2022/01/08 05:49:05;;;;;;;4.80;1.30;;;;;;;;;;5024281;28;20025;-31
2022/01/08 05:51:31;;;;;;;2.00;1.58;;;;;;;;;;5024377;28;20034;-31
2022/01/08 05:53:56;;;;;;;1.77;1.25;;;;;;;;;;5024439;28;20261;-31
2022/01/08 05:56:21;;;;;;;1.35;1.17;;;;;;;;;;5024384;28;20083;-33
2022/01/08 05:58:47;;;;;;;2.22;1.58;;;;;;;;;;5024411;28;20402;-34
2022/01/08 06:01:12;;;;;;;4.65;1.17;;;;;;;;;;5023727;28;20488;-33
2022/01/08 06:03:38;;;;;;;1.48;1.13;;;;;;;;;;5025609;28;20545;-31
2022/01/08 06:06:04;;;;;;;1.45;1.23;;;;;;;;;;5032423;28;20036;-32
2022/01/08 06:08:29;;;;;;;1.88;1.20;;;;;;;;;;5033768;28;20135;-36
2022/01/08 06:10:55;;;;;;;1.30;1.13;;;;;;;;;;5031409;28;20057;-31
2022/01/08 06:13:20;;;;;;;3.55;1.20;;;;;;;;;;5033201;28;20492;-32
2022/01/08 06:15:46;;;;;;;2.30;1.20;;;;;;;;;;5034430;28;20030;-32
2022/01/08 06:18:11;;;;;;;2.13;1.20;;;;;;;;;;5049049;28;20037;-33
2022/01/08 06:20:37;;;;;;;1.67;1.30;;;;;;;;;;5023103;28;20064;-34
2022/01/08 06:23:02;;;;;;;5.47;1.30;;;;;;;;;;5024022;28;20092;-29
2022/01/08 06:25:29;;;;;;;5.80;1.30;;;;;;;;;;5023646;28;20025;-33
2022/01/08 06:27:55;;;;;;;1.95;1.40;;;;;;;;;;5035554;28;20037;-31
2022/01/08 06:30:20;;;;;;;1.55;1.30;;;;;;;;;;5038618;28;20029;-32
2022/01/08 06:32:46;;;;;;;3.13;1.30;;;;;;;;;;5038629;28;20116;-32
2022/01/08 06:35:11;;;;;;;2.22;1.33;;;;;;;;;;5023532;28;20033;-34
2022/01/08 06:37:37;;;;;;;7.03;1.30;;;;;;;;;;5033459;28;20091;-36
2022/01/08 06:40:03;;;;;;;2.40;1.33;;;;;;;;;;5025318;28;20040;-31
2022/01/08 06:42:28;;;;;;;19.02;1.52;;;;;;;;;;5033237;28;20460;-32
2022/01/08 06:44:54;;;;;;;5.53;1.63;;;;;;;;;;5037083;28;20029;-31
2022/01/08 06:47:19;;;;;;;5.28;1.35;;;;;;;;;;5038389;28;20426;-36
2022/01/08 06:49:45;;;;;;;2.92;0.73;;;;;;;;;;5036315;28;20029;-32
2022/01/08 06:52:10;;;;;;;3.65;1.02;;;;;;;;;;5028790;28;20030;-35
2022/01/08 06:54:36;;;;;;;3.80;1.50;;;;;;;;;;5037671;28;20147;-31
2022/01/08 06:57:01;;;;;;;1.98;1.10;;;;;;;;;;5028013;28;20017;-34
2022/01/08 06:59:27;;;;;;;2.63;0.88;;;;;;;;;;5035462;28;20795;-33
2022/01/08 07:01:52;;;;;;;6.15;1.05;;;;;;;;;;5030310;28;20095;-31
2022/01/08 07:04:18;;;;;;;4.72;0.90;;;;;;;;;;5032202;28;20022;-31
2022/01/08 07:06:43;;;;;;;4.72;1.00;;;;;;;;;;5033603;28;20021;-31
2022/01/08 07:09:09;;;;;;;3.90;1.38;;;;;;;;;;5031262;28;20041;-32
2022/01/08 07:11:35;;;;;;;3.65;1.10;;;;;;;;;;5031116;28;20017;-31
2022/01/08 07:14:02;;;;;;;2.83;1.00;;;;;;;;;;5030224;28;20028;-33
2022/01/08 07:16:28;;;;;;;1.00;0.80;;;;;;;;;;5039638;28;20125;-32
2022/01/08 07:18:54;;;;;;;2.70;1.10;;;;;;;;;;5042702;28;20029;-31
2022/01/08 07:21:20;;;;;;;8.13;1.50;;;;;;;;;;5042278;28;20535;-29
2022/01/08 07:23:46;;;;;;;15.27;1.98;;;;;;;;;;5043178;28;20029;-33
2022/01/08 07:26:11;;;;;;;6.32;1.20;;;;;;;;;;5038870;28;20486;-31
2022/01/08 07:28:39;;;;;;;9.90;1.55;;;;;;;;;;5026290;28;20034;-28
2022/01/08 07:31:05;;;;;;;9.57;2.13;;;;;;;;;;5038434;28;20060;-29
2022/01/08 07:33:30;;;;;;;9.35;1.40;;;;;;;;;;5042059;28;20518;-32
2022/01/08 07:35:56;;;;;;;9.25;1.38;;;;;;;;;;5041737;28;20112;-28
2022/01/08 07:38:22;;;;;;;2.03;1.13;;;;;;;;;;5041923;28;20041;-32
2022/01/08 07:40:51;;;;;;;9.00;1.75;;;;;;;;;;5042120;28;20025;-33
2022/01/08 07:43:17;;;;;;;5.25;1.88;;;;;;;;;;5042269;28;20064;-28
2022/01/08 07:45:43;;;;;;;7.68;1.42;;;;;;;;;;5041781;28;20091;-31
2022/01/08 07:48:09;;;;;;;13.68;1.70;;;;;;;;;;5042718;28;20057;-34
2022/01/08 07:50:34;;;;;;;13.00;1.90;;;;;;;;;;5042320;28;20501;-30
2022/01/08 07:53:00;;;;;;;19.27;1.95;;;;;;;;;;5041513;28;20036;-28
2022/01/08 07:55:25;;;;;;;16.05;1.65;;;;;;;;;;5042251;28;20033;-29
2022/01/08 07:57:51;;;;;;;14.50;2.03;;;;;;;;;;5042424;28;20025;-32
2022/01/08 08:00:16;;;;;;;11.38;1.42;;;;;;;;;;5041461;28;20112;-32
2022/01/08 08:02:42;;;;;;;12.80;1.85;;;;;;;;;;5041891;28;20514;-29
2022/01/08 08:05:08;;;;;;;11.60;1.40;;;;;;;;;;5041927;28;20029;-35
2022/01/08 08:07:37;;;;;;;11.93;1.65;;;;;;;;;;5041555;28;20091;-30
2022/01/08 08:10:22;;;;;;;5.10;1.23;;;;;;;;;;5042061;28;20072;-33
2022/01/08 08:12:47;;;;;;;7.35;1.10;;;;;;;;;;5042138;28;20041;-32
2022/01/08 08:15:15;;;;;;;7.20;1.52;;;;;;;;;;5057350;28;20403;-30
2022/01/08 08:17:40;;;;;;;3.88;1.10;;;;;;;;;;5041825;28;20107;-31
2022/01/08 08:20:06;;;;;;;3.72;1.20;;;;;;;;;;5040165;28;20537;-29
2022/01/08 08:22:32;;;;;;;6.63;0.93;;;;;;;;;;5042150;28;20037;-30
2022/01/08 08:24:57;;;;;;;3.70;1.55;;;;;;;;;;5044842;28;20059;-30
2022/01/08 08:27:23;;;;;;;3.33;1.15;;;;;;;;;;5045763;28;20064;-32
2022/01/08 08:29:48;;;;;;;5.13;1.15;;;;;;;;;;5044389;28;20646;-34
2022/01/08 08:32:14;;;;;;;8.75;1.20;;;;;;;;;;5045548;28;20033;-34
2022/01/08 08:34:39;;;;;;;7.47;1.08;;;;;;;;;;5045227;28;20021;-29
2022/01/08 08:37:05;;;;;;;2.75;0.95;;;;;;;;;;5044459;28;20029;-32
2022/01/08 08:39:31;;;;;;;4.93;1.15;;;;;;;;;;5044442;28;20620;-35
2022/01/08 08:41:56;;;;;;;7.68;1.45;;;;;;;;;;5044967;28;20040;-33
2022/01/08 08:44:22;;;;;;;4.20;1.10;;;;;;;;;;5044920;28;20489;-32
2022/01/08 08:46:47;;;;;;;1.75;1.13;;;;;;;;;;5044423;28;20033;-36
2022/01/08 08:49:13;;;;;;;6.28;0.98;;;;;;;;;;5045379;28;20054;-33
2022/01/08 08:51:38;;;;;;;3.05;2.13;;;;;;;;;;5044636;28;20063;-30
2022/01/08 08:54:04;;;;;;;12.10;7.50;;;;;;;;;;5042793;28;20033;-30
2022/01/08 08:56:29;;;;;;;15.65;8.45;;;;;;;;;;5044523;28;20040;-30
2022/01/08 08:58:55;;;;;;;10.75;8.27;;;;;;;;;;5045007;28;20068;-31
2022/01/08 09:01:21;;;;;;;12.23;7.57;;;;;;;;;;5044760;28;20039;-30
2022/01/08 09:03:47;;;;;;;10.68;7.43;;;;;;;;;;5043846;28;20241;-30
2022/01/08 09:06:12;;;;;;;18.38;7.35;;;;;;;;;;5045134;28;20035;-36
2022/01/08 09:08:38;;;;;;;15.18;6.82;;;;;;;;;;5044346;28;20045;-38
2022/01/08 09:11:03;;;;;;;10.80;7.57;;;;;;;;;;5043969;28;20107;-33
2022/01/08 09:13:29;;;;;;;8.93;7.50;;;;;;;;;;5044837;28;20029;-34
2022/01/08 09:15:54;;;;;;;10.38;7.38;;;;;;;;;;5044945;28;20446;-31
2022/01/08 09:18:21;;;;;;;10.13;7.82;;;;;;;;;;5043616;28;20033;-38
2022/01/08 09:20:46;;;;;;;13.35;8.02;;;;;;;;;;5027315;28;20072;-33
2022/01/08 09:23:12;;;;;;;17.33;8.50;;;;;;;;;;5044518;28;20495;-31
2022/01/08 09:25:38;;;;;;;21.65;7.68;;;;;;;;;;5043106;28;20037;-31
2022/01/08 09:28:03;;;;;;;16.63;7.60;;;;;;;;;;5045023;28;20029;-30
2022/01/08 09:30:29;;;;;;;20.52;8.50;;;;;;;;;;5044270;28;20029;-36
2022/01/08 09:32:55;;;;;;;14.80;7.40;;;;;;;;;;5044355;28;20033;-30
2022/01/08 09:35:20;;;;;;;12.68;7.68;;;;;;;;;;5043591;28;20032;-29
2022/01/08 09:37:46;;;;;;;15.00;6.72;;;;;;;;;;5044555;28;20040;-31
2022/01/08 09:40:14;;;;;;;21.55;7.25;;;;;;;;;;5044558;28;20506;-28
2022/01/08 09:42:41;;;;;;;11.32;7.95;;;;;;;;;;5044111;28;20035;-32
2022/01/08 09:45:07;;;;;;;18.23;8.10;;;;;;;;;;5043535;28;20029;-32
2022/01/08 09:47:32;;;;;;;21.35;8.40;;;;;;;;;;5044122;28;20078;-35
2022/01/08 09:49:58;;;;;;;19.83;7.95;;;;;;;;;;5044018;28;20106;-39
2022/01/08 09:52:23;;;;;;;28.95;8.50;;;;;;;;;;5044011;28;20040;-34
2022/01/08 09:54:49;;;;;;;23.02;8.05;;;;;;;;;;5044232;28;20112;-33
2022/01/08 09:57:14;;;;;;;29.88;9.13;;;;;;;;;;5042507;28;20486;-34
2022/01/08 09:59:40;;;;;;;13.27;8.15;;;;;;;;;;5043784;28;20055;-38
2022/01/08 10:02:05;;;;;;;21.05;8.63;;;;;;;;;;5044069;28;20029;-34
2022/01/08 10:04:35;;;;;;;21.48;8.68;;;;;;;;;;5043595;28;20029;-30
2022/01/08 10:07:20;;;;;;;27.08;8.70;;;;;;;;;;5044050;28;20053;-33
2022/01/08 10:10:04;;;;;;;39.60;9.55;;;;;;;;;;5043494;28;20048;-32
2022/01/08 10:12:55;;;;;;;17.98;8.68;;;;;;;;;;5043782;28;20052;-35
2022/01/08 10:18:11;;;;;;;29.88;8.88;;;;;;;;;;5043837;28;20044;-32
2022/01/08 10:20:39;;;;;;;46.08;10.00;;;;;;;;;;5040097;28;20037;-30
2022/01/08 10:23:36;;;;;;;13.60;4.00;;;;;;;;;;5023475;28;20033;-30
2022/01/08 10:26:04;;;;;;;4.30;2.13;;;;;;;;;;4999948;28;20043;-31
2022/01/08 10:28:51;;;;;;;1.63;1.10;;;;;;;;;;5023236;28;20500;-31
2022/01/08 10:31:18;;;;;;;3.15;1.20;;;;;;;;;;5023896;28;20514;-31
2022/01/08 10:33:48;;;;;;;1.60;1.50;;;;;;;;;;5021477;28;20095;-32
2022/01/08 10:36:13;;;;;;;3.17;1.63;;;;;;;;;;5023658;28;20061;-35
2022/01/08 10:38:39;;;;;;;1.70;1.23;;;;;;;;;;5023014;28;20022;-33
2022/01/08 10:41:10;;;;;;;4.22;1.95;;;;;;;;;;5023264;28;20026;-33
2022/01/08 10:43:36;;;;;;;1.95;1.30;;;;;;;;;;5022086;28;20104;-31
2022/01/08 10:46:16;;;;;;;2.08;1.75;;;;;;;;;;5023157;28;20425;-33
2022/01/08 10:48:43;;;;;;;1.42;1.20;;;;;;;;;;5022448;28;20044;-32
2022/01/08 10:51:20;;;;;;;9.02;1.88;;;;;;;;;;5022130;28;20079;-33
2022/01/08 10:54:09;;;;;;;6.25;1.60;;;;;;;;;;5023437;28;20030;-33
2022/01/08 10:56:43;;;;;;;5.32;1.85;;;;;;;;;;5021475;28;20056;-30
2022/01/08 10:59:18;;;;;;;10.27;1.95;;;;;;;;;;5023066;28;20405;-35
2022/01/08 11:02:00;;;;;;;7.68;1.95;;;;;;;;;;5023102;28;20495;-38
2022/01/08 11:04:47;;;;;;;4.97;2.58;;;;;;;;;;5034235;28;20043;-29
2022/01/08 11:07:23;;;;;;;3.60;1.77;;;;;;;;;;5043056;28;20031;-34
2022/01/08 11:09:50;;;;;;;4.90;2.17;;;;;;;;;;5041231;28;20041;-32
2022/01/08 11:12:18;;;;;;;4.82;2.00;;;;;;;;;;5042990;28;20037;-33
2022/01/08 11:17:20;;;;;;;;;;;;;;;;;;5043744;28;20033;-31
2022/01/08 11:19:48;;;;;;;8.40;2.33;;;;;;;;;;5042729;28;20385;-30
2022/01/08 11:22:14;;;;;;;4.05;2.65;;;;;;;;;;5042861;28;20021;-32
2022/01/08 11:24:51;;;;;;;4.65;2.47;;;;;;;;;;5033475;28;20117;-31
2022/01/08 11:27:20;;;;;;;4.40;2.30;;;;;;;;;;5021622;28;20097;-30
2022/01/08 11:29:46;;;;;;;4.60;2.30;;;;;;;;;;5022820;28;20104;-36
2022/01/08 11:32:11;;;;;;;3.95;2.47;;;;;;;;;;5022314;28;20579;-37
2022/01/08 11:34:40;;;;;;;4.50;2.50;;;;;;;;;;5039670;28;20128;-29
2022/01/08 11:37:08;;;;;;;4.35;2.55;;;;;;;;;;5024292;28;20044;-33
2022/01/08 11:39:33;;;;;;;8.95;3.13;;;;;;;;;;5042292;28;20631;-28
2022/01/08 11:41:59;;;;;;;7.82;2.70;;;;;;;;;;5028146;28;20034;-34
2022/01/08 11:44:24;;;;;;;4.35;2.63;;;;;;;;;;5039538;28;20025;-32
2022/01/08 11:46:50;;;;;;;11.00;2.47;;;;;;;;;;5042141;28;20135;-34
2022/01/08 11:49:15;;;;;;;3.40;3.00;;;;;;;;;;5042061;28;20094;-33
2022/01/08 11:51:41;;;;;;;4.55;2.65;;;;;;;;;;5042413;28;20557;-34
2022/01/08 11:54:06;;;;;;;5.93;3.03;;;;;;;;;;5040660;28;20029;-34
2022/01/08 11:56:38;;;;;;;5.05;2.60;;;;;;;;;;5040565;28;20029;-30
2022/01/08 11:59:14;;;;;;;5.15;2.60;;;;;;;;;;5043792;28;20415;-33
2022/01/08 12:01:43;;;;;;;5.30;2.40;;;;;;;;;;5045931;28;20040;-34
2022/01/08 12:04:25;;;;;;;3.50;2.45;;;;;;;;;;5046010;28;20033;-32
2022/01/08 12:06:51;;;;;;;5.53;2.53;;;;;;;;;;5046428;28;20174;-29
2022/01/08 12:09:19;;;;;;;5.97;2.60;;;;;;;;;;5027955;28;20056;-32
2022/01/08 12:11:45;;;;;;;5.07;2.53;;;;;;;;;;5045943;28;20025;-35
2022/01/08 12:14:51;;;;;;;6.07;4.80;;;;;;;;;;5045667;28;20083;-31
2022/01/08 12:17:20;;;;;;;13.73;7.07;;;;;;;;;;5044430;28;20051;-29
2022/01/08 12:19:56;;;;;;;8.38;7.45;;;;;;;;;;5045705;28;20037;-30
2022/01/08 12:22:22;;;;;;;12.30;11.10;;;;;;;;;;5028862;28;20053;-30
2022/01/08 12:24:55;;;;;;;13.35;10.93;;;;;;;;;;5045810;28;20041;-29
2022/01/08 12:27:39;;;;;;;15.75;12.02;;;;;;;;;;5034233;28;20061;-32
2022/01/08 12:30:29;;;;;;;18.17;12.77;;;;;;;;;;5025740;28;20061;-35
2022/01/08 12:33:28;;;;;;;18.23;12.88;;;;;;;;;;5026226;28;20072;-35
2022/01/08 12:35:57;;;;;;;19.80;13.05;;;;;;;;;;5013246;28;20034;-31
2022/01/08 12:38:25;;;;;;;17.50;11.65;;;;;;;;;;5007957;28;20681;-31
2022/01/08 12:40:51;;;;;;;21.15;10.27;;;;;;;;;;5025727;28;20051;-31
2022/01/08 12:43:23;;;;;;;16.90;9.98;;;;;;;;;;5025573;28;20483;-37
2022/01/08 12:45:50;;;;;;;15.73;9.70;;;;;;;;;;5025700;28;20105;-29
2022/01/08 12:48:16;;;;;;;19.80;10.18;;;;;;;;;;5025429;28;20492;-36
2022/01/08 12:50:42;;;;;;;14.02;8.57;;;;;;;;;;5025041;28;20029;-32
2022/01/08 12:53:08;;;;;;;15.25;7.90;;;;;;;;;;5025251;28;20044;-35
2022/01/08 12:55:55;;;;;;;18.95;8.40;;;;;;;;;;5025277;28;20124;-34
2022/01/08 12:58:26;;;;;;;15.65;7.97;;;;;;;;;;5024937;28;20630;-33
2022/01/08 13:00:55;;;;;;;19.73;8.25;;;;;;;;;;5025381;28;20429;-32
2022/01/08 13:03:35;;;;;;;8.23;4.18;;;;;;;;;;5025381;28;20041;-32
2022/01/08 13:06:02;;;;;;;4.68;2.42;;;;;;;;;;5025584;28;20021;-32
2022/01/08 13:08:29;;;;;;;7.18;2.67;;;;;;;;;;5024583;28;20052;-32
2022/01/08 13:11:00;;;;;;;11.18;4.00;;;;;;;;;;5024048;28;20030;-34
2022/01/08 13:13:55;;;;;;;11.35;4.00;;;;;;;;;;5030752;28;20029;-31
2022/01/08 13:16:22;;;;;;;8.13;4.18;;;;;;;;;;5045066;28;20040;-33
2022/01/08 13:19:08;;;;;;;9.10;4.80;;;;;;;;;;5044938;28;20098;-34
2022/01/08 13:21:46;;;;;;;20.55;5.05;;;;;;;;;;5043970;28;20036;-35
2022/01/08 13:24:17;;;;;;;25.75;5.60;;;;;;;;;;5044924;28;20108;-31
2022/01/08 13:26:44;;;;;;;41.17;6.95;;;;;;;;;;5044641;28;20612;-31
2022/01/08 13:29:26;;;;;;;22.13;5.70;;;;;;;;;;5044249;28;20028;-32
2022/01/08 13:31:56;;;;;;;26.70;5.90;;;;;;;;;;5044312;28;20036;-31
2022/01/08 13:34:22;;;;;;;31.88;5.50;;;;;;;;;;5043923;28;20526;-33
2022/01/08 13:36:58;;;;;;;23.42;5.18;;;;;;;;;;5044657;28;20037;-36
2022/01/08 13:39:27;;;;;;;30.92;6.18;;;;;;;;;;5043971;28;20687;-36
2022/01/08 13:42:11;;;;;;;23.25;5.32;;;;;;;;;;5042976;28;20499;-38
2022/01/08 13:44:41;;;;;;;17.42;5.47;;;;;;;;;;5043818;28;20072;-32
2022/01/08 13:47:26;;;;;;;21.85;5.05;;;;;;;;;;5042254;28;20033;-32
2022/01/08 13:49:54;;;;;;;12.43;5.40;;;;;;;;;;5044239;28;20035;-31
2022/01/08 13:52:36;;;;;;;19.55;5.15;;;;;;;;;;5043429;28;20162;-34
2022/01/08 13:55:25;;;;;;;17.67;4.85;;;;;;;;;;5042256;28;20041;-33
2022/01/08 13:58:11;;;;;;;15.10;4.25;;;;;;;;;;5043999;28;20068;-34
2022/01/08 14:00:47;;;;;;;16.23;4.40;;;;;;;;;;5043626;28;20208;-31
2022/01/08 14:03:27;;;;;;;17.00;4.13;;;;;;;;;;5043836;28;20025;-31
2022/01/08 14:05:54;;;;;;;7.05;3.67;;;;;;;;;;5044111;28;20392;-33
2022/01/08 14:08:19;;;;;;;11.85;3.78;;;;;;;;;;5043121;28;20426;-32
2022/01/08 14:10:49;;;;;;;10.52;4.20;;;;;;;;;;5043324;28;20033;-36
2022/01/08 14:13:16;;;;;;;15.05;4.22;;;;;;;;;;5042935;28;20770;-35
2022/01/08 14:15:43;;;;;;;15.43;4.28;;;;;;;;;;5043666;28;20021;-37
2022/01/08 14:18:16;;;;;;;10.07;3.95;;;;;;;;;;5044054;28;20072;-32
2022/01/08 14:20:42;;;;;;;7.75;4.30;;;;;;;;;;5043532;28;20549;-34
2022/01/08 14:23:16;;;;;;;10.30;4.18;;;;;;;;;;5043437;28;20434;-34
2022/01/08 14:25:42;;;;;;;7.13;3.90;;;;;;;;;;5043425;28;20107;-30
2022/01/08 14:28:21;;;;;;;5.65;3.90;;;;;;;;;;5043737;28;20033;-31
2022/01/08 14:30:47;;;;;;;13.75;4.75;;;;;;;;;;5037504;28;20056;-35
2022/01/08 14:33:13;;;;;;;11.23;4.40;;;;;;;;;;5034404;28;20908;-35
2022/01/08 14:35:38;;;;;;;14.68;3.75;;;;;;;;;;5043530;28;20028;-32
2022/01/08 14:38:04;;;;;;;15.05;4.00;;;;;;;;;;5042757;28;20129;-34
2022/01/08 14:40:34;;;;;;;16.58;5.00;;;;;;;;;;5043021;28;20072;-33
2022/01/08 14:43:06;;;;;;;28.52;5.10;;;;;;;;;;5043350;28;20088;-29
2022/01/08 14:45:33;;;;;;;57.45;5.95;;;;;;;;;;5042988;28;20120;-33
2022/01/08 14:48:00;;;;;;;32.75;4.95;;;;;;;;;;5043199;28;20029;-30
2022/01/08 14:50:27;;;;;;;37.20;5.60;;;;;;;;;;5043069;28;20135;-31
2022/01/08 14:52:53;;;;;;;15.45;4.90;;;;;;;;;;5042735;28;20025;-31
2022/01/08 14:55:20;;;;;;;18.65;4.10;;;;;;;;;;5043139;28;20021;-30
2022/01/08 14:57:45;;;;;;;28.63;4.72;;;;;;;;;;5043019;28;20706;-31
2022/01/08 15:00:15;;;;;;;27.73;4.97;;;;;;;;;;5043142;28;20123;-30
2022/01/08 15:02:41;;;;;;;43.00;4.97;;;;;;;;;;5042760;28;20128;-30
2022/01/08 15:05:08;;;;;;;25.98;4.75;;;;;;;;;;5043314;28;20033;-29
2022/01/08 15:07:34;;;;;;;20.55;4.38;;;;;;;;;;5042882;28;20585;-33
2022/01/08 15:09:59;;;;;;;30.95;5.18;;;;;;;;;;5042746;28;20072;-32